Terminal Aerodrome Forecast
Issued by NWS

Home | Current Version | Previous Version | Text Only | Print | Product List | Glossary On
Versions: 1 2 3 4 5 6 7 8 9 10 11 12 13 14 15 16 17 18 19 20 21
000
FTUS41 KCAR 181700 RRA
TAFFVE
TAF
KFVE 181750Z 1818/1918 15010KT P6SM BKN150
     FM190600 18005KT P6SM -SHSN SCT025 OVC050
     FM190700 19004KT 2SM -SHSN OVC020
     FM191600 32010G18KT 5SM -SHSN OVC025=

USA.gov is the U.S. government's official web portal to all federal, state and local government web resources and services.